createdAt,value
2023-04-21T00:01:41.363Z,9.69
2023-04-21T00:04:09.925Z,9.78
2023-04-21T00:06:37.977Z,9.84
2023-04-21T00:09:07.389Z,9.84
2023-04-21T00:11:35.589Z,9.80
2023-04-21T00:14:03.863Z,9.75
2023-04-21T00:16:31.935Z,9.72
2023-04-21T00:19:00.081Z,9.57
2023-04-21T00:21:28.013Z,9.57
2023-04-21T00:23:55.986Z,9.67
2023-04-21T00:26:25.547Z,9.69
2023-04-21T00:28:53.860Z,9.76
2023-04-21T00:31:21.980Z,9.69
2023-04-21T00:33:50.001Z,9.71
2023-04-21T00:36:17.942Z,9.81
2023-04-21T00:38:45.876Z,9.88
2023-04-21T00:41:15.766Z,9.89
2023-04-21T00:44:02.866Z,9.87
2023-04-21T00:46:33.068Z,9.88
2023-04-21T00:49:04.326Z,9.92
2023-04-21T00:51:34.555Z,9.96
2023-04-21T00:54:05.147Z,9.94
2023-04-21T00:56:34.993Z,9.84
2023-04-21T00:59:05.088Z,9.89
2023-04-21T01:01:34.300Z,9.90
2023-04-21T01:04:03.528Z,9.85
2023-04-21T01:06:34.122Z,9.85
2023-04-21T01:09:02.428Z,9.88
2023-04-21T01:11:30.326Z,9.88
2023-04-21T01:13:58.370Z,9.85
2023-04-21T01:16:28.118Z,9.86
2023-04-21T01:18:56.274Z,9.88
2023-04-21T01:21:24.702Z,9.93
2023-04-21T01:23:54.314Z,9.91
2023-04-21T01:26:23.638Z,9.87
2023-04-21T01:28:51.643Z,9.85
2023-04-21T01:31:21.155Z,9.84
2023-04-21T01:33:49.235Z,9.81
2023-04-21T01:36:17.705Z,9.81
2023-04-21T01:38:45.812Z,9.83
2023-04-21T01:41:15.230Z,9.85
2023-04-21T01:43:43.167Z,9.88
2023-04-21T01:46:11.340Z,9.83
2023-04-21T01:48:39.328Z,9.84
2023-04-21T01:51:07.446Z,9.84
2023-04-21T01:53:35.449Z,9.76
2023-04-21T01:56:03.472Z,9.69
2023-04-21T01:58:33.678Z,9.63
2023-04-21T02:01:01.687Z,9.56
2023-04-21T02:03:29.726Z,9.40
2023-04-21T02:05:57.842Z,9.32
2023-04-21T02:08:25.805Z,9.23
2023-04-21T02:10:53.734Z,9.20
2023-04-21T02:13:21.676Z,9.15
2023-04-21T02:15:59.548Z,9.15
2023-04-21T02:18:34.554Z,9.13
2023-04-21T02:21:03.063Z,9.15
2023-04-21T02:23:31.004Z,9.20
2023-04-21T02:25:58.922Z,9.16
2023-04-21T02:28:26.826Z,9.04
2023-04-21T02:30:56.251Z,9.03
2023-04-21T02:33:24.703Z,8.97
2023-04-21T02:35:52.622Z,9.09
2023-04-21T02:38:20.610Z,9.22
2023-04-21T02:40:48.759Z,9.27
2023-04-21T02:43:16.733Z,9.27
2023-04-21T02:45:44.874Z,9.26
2023-04-21T02:48:14.934Z,9.33
2023-04-21T02:50:44.425Z,9.34
2023-04-21T02:53:12.388Z,9.36
2023-04-21T02:55:40.867Z,9.38
2023-04-21T02:58:10.304Z,9.38
2023-04-21T03:00:38.395Z,9.44
2023-04-21T03:03:06.801Z,9.41
2023-04-21T03:05:36.236Z,9.40
2023-04-21T03:08:04.200Z,9.39
2023-04-21T03:10:32.177Z,9.44
2023-04-21T03:13:00.108Z,9.44
2023-04-21T03:15:28.276Z,9.45
2023-04-21T03:17:56.342Z,9.50
2023-04-21T03:20:26.387Z,9.44
2023-04-21T03:22:55.935Z,9.44
2023-04-21T03:25:24.141Z,9.44
2023-04-21T03:27:52.158Z,9.47
2023-04-21T03:30:20.947Z,9.48
2023-04-21T03:32:48.988Z,9.47
2023-04-21T03:35:17.257Z,9.50
2023-04-21T03:37:45.278Z,9.51
2023-04-21T03:40:14.706Z,9.53
2023-04-21T03:42:43.572Z,9.50
2023-04-21T03:45:11.747Z,9.50
2023-04-21T03:47:39.692Z,9.49
2023-04-21T03:50:08.730Z,9.44
2023-04-21T03:52:36.632Z,9.43
2023-04-21T03:55:05.171Z,9.46
2023-04-21T03:57:34.433Z,9.46
2023-04-21T04:00:02.366Z,9.50
2023-04-21T04:02:40.750Z,9.55
2023-04-21T04:05:09.714Z,9.42
2023-04-21T04:07:37.837Z,9.27
2023-04-21T04:10:06.115Z,9.02
2023-04-21T04:12:35.531Z,8.86
2023-04-21T04:15:03.697Z,8.91
2023-04-21T04:17:31.601Z,8.98
2023-04-21T04:19:59.596Z,9.01
2023-04-21T04:22:27.528Z,9.08
2023-04-21T04:24:55.691Z,9.08
2023-04-21T04:27:23.596Z,9.13
2023-04-21T04:29:53.164Z,9.06
2023-04-21T04:32:21.822Z,9.03
2023-04-21T04:34:49.789Z,9.12
2023-04-21T04:37:17.726Z,9.12
2023-04-21T04:39:45.746Z,9.14
2023-04-21T04:42:14.605Z,8.94
2023-04-21T04:44:42.594Z,8.99
2023-04-21T04:47:12.622Z,8.92
2023-04-21T04:49:40.577Z,8.80
2023-04-21T04:52:08.514Z,8.92
2023-04-21T04:54:36.436Z,8.80
2023-04-21T04:57:04.487Z,8.77
2023-04-21T04:59:32.415Z,8.92
2023-04-21T05:02:00.578Z,8.98
2023-04-21T05:04:30.172Z,9.06
2023-04-21T05:06:58.214Z,8.90
2023-04-21T05:09:26.463Z,8.48
2023-04-21T05:11:54.465Z,8.50
2023-04-21T05:14:22.486Z,8.45
2023-04-21T05:16:50.472Z,8.51
2023-04-21T05:19:18.915Z,8.70
2023-04-21T05:21:48.301Z,8.79
2023-04-21T05:24:16.239Z,8.80
2023-04-21T05:26:44.104Z,8.93
2023-04-21T05:29:12.034Z,8.96
2023-04-21T05:31:40.097Z,9.04
2023-04-21T05:34:08.018Z,9.22
2023-04-21T05:36:35.956Z,9.29
2023-04-21T05:39:06.375Z,9.35
2023-04-21T05:41:34.288Z,9.44
2023-04-21T05:44:02.313Z,9.43
2023-04-21T05:46:30.954Z,9.45
2023-04-21T05:48:58.909Z,9.49
2023-04-21T05:51:27.142Z,9.53
2023-04-21T05:53:55.224Z,9.53
2023-04-21T05:56:24.509Z,9.56
2023-04-21T05:58:52.559Z,9.54
2023-04-21T06:01:20.453Z,9.47
2023-04-21T06:03:50.412Z,9.39
2023-04-21T06:06:19.183Z,9.40
2023-04-21T06:08:47.132Z,9.39
2023-04-21T06:11:15.100Z,9.28
2023-04-21T06:13:44.793Z,9.25
2023-04-21T06:16:12.776Z,9.45
2023-04-21T06:18:40.771Z,9.59
2023-04-21T06:21:08.831Z,9.59
2023-04-21T06:23:36.719Z,9.66
2023-04-21T06:26:06.824Z,9.72
2023-04-21T06:28:36.137Z,9.61
2023-04-21T06:31:08.862Z,9.38
2023-04-21T06:33:37.468Z,9.29
2023-04-21T06:36:06.171Z,9.45
2023-04-21T06:38:34.309Z,9.54
2023-04-21T06:41:02.519Z,9.68
2023-04-21T06:43:30.537Z,9.84
2023-04-21T06:45:59.146Z,9.87
2023-04-21T06:48:29.949Z,9.95
2023-04-21T06:50:58.302Z,10.02
2023-04-21T06:53:26.491Z,9.95
2023-04-21T06:55:54.501Z,9.92
2023-04-21T06:58:22.419Z,9.86
2023-04-21T07:00:50.346Z,9.76
2023-04-21T07:03:18.345Z,9.67
2023-04-21T07:05:47.751Z,9.67
2023-04-21T07:08:15.756Z,9.73
2023-04-21T07:10:43.660Z,9.75
2023-04-21T07:13:11.608Z,9.85
2023-04-21T07:15:39.591Z,9.91
2023-04-21T07:18:07.596Z,9.96
2023-04-21T07:20:35.628Z,9.95
2023-04-21T07:23:04.960Z,10.00
2023-04-21T07:25:32.884Z,9.98
2023-04-21T07:28:00.778Z,10.00
2023-04-21T07:30:29.434Z,9.90
2023-04-21T07:32:57.838Z,9.93
2023-04-21T07:35:25.840Z,10.05
2023-04-21T07:37:53.846Z,10.17
2023-04-21T07:40:23.146Z,10.23
2023-04-21T07:42:51.139Z,10.10
2023-04-21T07:45:19.239Z,10.07
2023-04-21T07:47:47.325Z,9.97
2023-04-21T07:50:15.294Z,9.96
2023-04-21T07:52:43.211Z,9.76
2023-04-21T07:55:11.374Z,9.54
2023-04-21T07:57:40.699Z,9.67
2023-04-21T08:00:10.440Z,9.76
2023-04-21T08:02:41.837Z,9.77
2023-04-21T08:05:10.365Z,9.69
2023-04-21T08:07:38.959Z,9.78
2023-04-21T08:10:08.244Z,9.79
2023-04-21T08:12:36.169Z,9.73
2023-04-21T08:15:08.463Z,9.65
2023-04-21T08:17:36.654Z,9.72
2023-04-21T08:20:05.356Z,9.74
2023-04-21T08:22:33.476Z,9.78
2023-04-21T08:25:01.491Z,9.88
2023-04-21T08:27:29.656Z,9.94
2023-04-21T08:29:57.714Z,9.96
2023-04-21T08:32:27.538Z,9.91
2023-04-21T08:34:56.109Z,9.85
2023-04-21T08:37:24.216Z,9.76
2023-04-21T08:39:53.593Z,9.78
2023-04-21T08:42:21.892Z,9.86
2023-04-21T08:44:49.959Z,10.03
2023-04-21T08:47:18.193Z,10.22
2023-04-21T08:49:50.919Z,10.38
2023-04-21T08:52:19.470Z,10.32
2023-04-21T08:54:51.832Z,10.36
2023-04-21T08:57:19.932Z,10.52
2023-04-21T08:59:47.918Z,10.47
2023-04-21T09:02:17.616Z,10.44
2023-04-21T09:04:48.912Z,10.54
2023-04-21T09:07:33.263Z,10.76
2023-04-21T09:10:01.697Z,10.93
2023-04-21T09:12:30.939Z,11.12
2023-04-21T09:14:59.250Z,11.23
2023-04-21T09:17:33.481Z,11.33
2023-04-21T09:20:15.561Z,11.30
2023-04-21T09:22:43.668Z,11.00
2023-04-21T09:25:11.690Z,10.84
2023-04-21T09:27:39.753Z,10.69
2023-04-21T09:30:09.412Z,10.70
2023-04-21T09:32:39.167Z,10.75
2023-04-21T09:35:11.204Z,10.75
2023-04-21T09:37:39.430Z,10.80
2023-04-21T09:40:08.394Z,10.92
2023-04-21T09:42:39.447Z,11.09
2023-04-21T09:45:32.413Z,11.11
2023-04-21T09:48:00.819Z,11.10
2023-04-21T09:53:06.976Z,11.27
2023-04-21T09:55:36.216Z,11.49
2023-04-21T09:58:07.026Z,11.72
2023-04-21T10:00:39.450Z,11.84
2023-04-21T10:03:11.541Z,11.88
2023-04-21T10:05:42.704Z,11.97
2023-04-21T10:08:12.722Z,11.92
2023-04-21T10:10:41.115Z,11.95
2023-04-21T10:13:14.742Z,12.07
2023-04-21T10:15:43.510Z,12.17
2023-04-21T10:18:19.222Z,12.14
2023-04-21T10:20:56.452Z,12.08
2023-04-21T10:23:31.345Z,12.04
2023-04-21T10:26:04.463Z,12.11
2023-04-21T10:28:49.543Z,12.12
2023-04-21T10:31:23.183Z,12.12
2023-04-21T10:34:20.337Z,12.17
2023-04-21T10:37:13.121Z,12.28
2023-04-21T10:39:53.360Z,12.31
2023-04-21T10:42:27.449Z,12.30
2023-04-21T10:45:04.067Z,12.31
2023-04-21T10:47:38.013Z,12.30
2023-04-21T10:50:14.825Z,12.34
2023-04-21T10:52:48.183Z,12.05
2023-04-21T10:55:17.180Z,12.19
2023-04-21T10:57:46.638Z,12.35
2023-04-21T11:00:20.376Z,12.39
2023-04-21T11:03:07.175Z,12.40
2023-04-21T11:05:38.719Z,12.13
2023-04-21T11:08:11.406Z,12.20
2023-04-21T11:10:54.625Z,12.25
2023-04-21T11:13:23.937Z,12.26
2023-04-21T11:16:00.542Z,12.13
2023-04-21T11:18:37.729Z,11.96
2023-04-21T11:21:10.469Z,11.98
2023-04-21T11:23:43.176Z,12.09
2023-04-21T11:26:11.195Z,12.18
2023-04-21T11:28:41.568Z,12.25
2023-04-21T11:31:09.711Z,12.21
2023-04-21T11:33:38.166Z,12.24
2023-04-21T11:36:07.528Z,12.26
2023-04-21T11:38:41.544Z,12.25
2023-04-21T11:41:10.965Z,12.25
2023-04-21T11:43:39.554Z,12.28
2023-04-21T11:46:25.068Z,12.38
2023-04-21T11:49:04.477Z,12.45
2023-04-21T11:51:37.364Z,12.44
2023-04-21T11:54:09.149Z,12.56
2023-04-21T11:56:38.627Z,12.60
2023-04-21T11:59:09.837Z,12.59
2023-04-21T12:01:44.606Z,12.64
2023-04-21T12:04:16.197Z,12.72
2023-04-21T12:06:45.345Z,12.68
2023-04-21T12:09:21.000Z,12.36
2023-04-21T12:11:50.332Z,12.29
2023-04-21T12:14:19.563Z,12.37
2023-04-21T12:16:49.924Z,12.44
2023-04-21T12:19:26.485Z,12.53
2023-04-21T12:21:55.793Z,12.62
2023-04-21T12:24:25.477Z,12.79
2023-04-21T12:26:53.623Z,12.90
2023-04-21T12:29:21.608Z,12.99
2023-04-21T12:31:49.605Z,13.04
2023-04-21T12:34:17.693Z,13.11
2023-04-21T12:36:45.784Z,13.19
2023-04-21T12:39:14.252Z,13.30
2023-04-21T12:41:43.571Z,13.38
2023-04-21T12:44:11.638Z,13.47
2023-04-21T12:46:39.679Z,13.34
2023-04-21T12:49:10.029Z,13.46
2023-04-21T12:51:38.239Z,13.50
2023-04-21T12:54:06.442Z,13.41
2023-04-21T12:56:34.517Z,13.48
2023-04-21T12:59:04.264Z,13.46
2023-04-21T13:01:32.290Z,13.45
2023-04-21T13:04:01.238Z,13.70
2023-04-21T13:06:29.409Z,13.57
2023-04-21T13:08:57.433Z,13.79
2023-04-21T13:11:25.554Z,14.00
2023-04-21T13:13:53.521Z,14.02
2023-04-21T13:16:22.869Z,14.11
2023-04-21T13:18:50.945Z,14.27
2023-04-21T13:21:18.914Z,14.38
2023-04-21T13:23:47.120Z,14.42
2023-04-21T13:26:16.017Z,14.41
2023-04-21T13:28:44.140Z,14.54
2023-04-21T13:31:12.223Z,14.67
2023-04-21T13:33:42.193Z,14.76
2023-04-21T13:36:12.789Z,14.94
2023-04-21T13:38:41.554Z,15.06
2023-04-21T13:41:09.604Z,15.09
2023-04-21T13:43:37.605Z,15.08
2023-04-21T13:46:05.687Z,14.97
2023-04-21T13:48:33.761Z,14.86
2023-04-21T13:51:03.314Z,14.89
2023-04-21T13:53:31.303Z,14.95
2023-04-21T13:55:59.494Z,14.93
2023-04-21T13:58:27.878Z,14.87
2023-04-21T14:00:56.052Z,14.99
2023-04-21T14:03:24.361Z,15.15
2023-04-21T14:05:52.501Z,15.16
2023-04-21T14:08:22.086Z,15.05
2023-04-21T14:10:50.133Z,15.11
2023-04-21T14:15:51.663Z,15.35
2023-04-21T14:18:19.878Z,15.44
2023-04-21T14:20:48.113Z,15.50
2023-04-21T14:23:16.413Z,15.52
2023-04-21T14:25:45.746Z,15.50
2023-04-21T14:28:13.734Z,15.32
2023-04-21T14:30:43.119Z,15.03
2023-04-21T14:33:11.447Z,14.97
2023-04-21T14:35:39.567Z,15.00
2023-04-21T14:38:08.439Z,14.94
2023-04-21T14:40:36.488Z,14.92
2023-04-21T14:43:06.003Z,14.83
2023-04-21T14:45:34.132Z,14.86
2023-04-21T14:48:02.395Z,14.95
2023-04-21T14:50:30.800Z,14.86
2023-04-21T14:52:58.725Z,14.86
2023-04-21T14:55:26.780Z,14.90
2023-04-21T14:57:54.742Z,14.78
2023-04-21T15:00:24.302Z,14.83
2023-04-21T15:02:52.938Z,14.85
2023-04-21T15:05:21.601Z,14.77
2023-04-21T15:07:49.597Z,14.66
2023-04-21T15:10:17.866Z,14.53
2023-04-21T15:12:46.188Z,14.42
2023-04-21T15:15:14.158Z,14.33
2023-04-21T15:17:43.510Z,14.39
2023-04-21T15:20:12.385Z,14.52
2023-04-21T15:22:40.439Z,14.66
2023-04-21T15:25:09.155Z,14.76
2023-04-21T15:27:37.792Z,14.72
2023-04-21T15:30:06.608Z,14.71
2023-04-21T15:32:34.810Z,14.77
2023-04-21T15:35:04.300Z,14.92
2023-04-21T15:37:32.355Z,14.95
2023-04-21T15:40:00.386Z,14.95
2023-04-21T15:42:28.609Z,14.97
2023-04-21T15:44:57.352Z,14.97
2023-04-21T15:47:25.436Z,14.96
2023-04-21T15:49:53.405Z,14.97
2023-04-21T15:52:22.970Z,15.00
2023-04-21T15:54:51.264Z,15.09
2023-04-21T15:57:19.331Z,15.13
2023-04-21T15:59:47.317Z,15.13
2023-04-21T16:02:15.745Z,15.12
2023-04-21T16:04:44.441Z,15.05
2023-04-21T16:07:13.016Z,15.04
2023-04-21T16:09:42.439Z,15.02
2023-04-21T16:12:10.559Z,14.93
2023-04-21T16:14:53.621Z,14.92
2023-04-21T16:17:26.743Z,14.98
2023-04-21T16:19:54.893Z,15.02
2023-04-21T16:22:22.832Z,14.98
2023-04-21T16:24:53.199Z,14.91
2023-04-21T16:27:21.475Z,14.93
2023-04-21T16:29:50.275Z,15.02
2023-04-21T16:32:18.353Z,15.06
2023-04-21T16:34:46.361Z,15.11
2023-04-21T16:37:14.439Z,15.13
2023-04-21T16:39:42.398Z,15.15
2023-04-21T16:42:11.746Z,15.13
2023-04-21T16:44:40.165Z,15.03
2023-04-21T16:47:08.848Z,14.96
2023-04-21T16:49:36.856Z,14.86
2023-04-21T16:52:04.977Z,14.86
2023-04-21T16:54:32.943Z,14.82
2023-04-21T16:57:02.375Z,14.78
2023-04-21T16:59:33.058Z,14.76
2023-04-21T17:02:01.394Z,14.68
2023-04-21T17:04:29.479Z,14.55
2023-04-21T17:06:57.502Z,14.42
2023-04-21T17:09:25.503Z,14.35
2023-04-21T17:11:53.488Z,14.27
2023-04-21T17:14:21.473Z,14.21
2023-04-21T17:16:51.055Z,14.15
2023-04-21T17:19:19.339Z,14.10
2023-04-21T17:21:47.312Z,14.14
2023-04-21T17:24:15.235Z,14.16
2023-04-21T17:26:43.374Z,14.17
2023-04-21T17:29:11.362Z,14.21
2023-04-21T17:31:39.349Z,14.26
2023-04-21T17:34:08.705Z,14.25
2023-04-21T17:36:36.850Z,14.22
2023-04-21T17:39:05.422Z,14.18
2023-04-21T17:41:33.677Z,14.14
2023-04-21T17:44:01.593Z,14.10
2023-04-21T17:46:29.582Z,13.97
2023-04-21T17:48:57.543Z,13.94
2023-04-21T17:51:28.781Z,13.94
2023-04-21T17:53:56.760Z,13.83
2023-04-21T17:56:24.872Z,13.55
2023-04-21T17:58:52.783Z,13.61
2023-04-21T18:01:21.003Z,13.41
2023-04-21T18:03:49.129Z,13.39
2023-04-21T18:06:17.313Z,13.46
2023-04-21T18:08:46.686Z,13.53
2023-04-21T18:11:14.708Z,13.48
2023-04-21T18:13:42.642Z,13.47
2023-04-21T18:16:10.607Z,13.47
2023-04-21T18:18:38.699Z,13.42
2023-04-21T18:21:06.890Z,13.35
2023-04-21T18:23:35.984Z,13.29
2023-04-21T18:26:05.524Z,13.25
2023-04-21T18:28:33.485Z,13.21
2023-04-21T18:31:01.745Z,13.15
2023-04-21T18:33:30.137Z,13.11
2023-04-21T18:35:58.088Z,13.11
2023-04-21T18:38:26.100Z,13.06
2023-04-21T18:40:54.027Z,13.01
2023-04-21T18:43:25.507Z,13.00
2023-04-21T18:45:53.499Z,12.99
2023-04-21T18:48:21.428Z,12.99
2023-04-21T18:50:49.655Z,12.97
2023-04-21T18:53:17.606Z,12.88
2023-04-21T18:55:45.710Z,12.85
2023-04-21T18:58:13.746Z,12.78
2023-04-21T19:00:43.162Z,12.75
2023-04-21T19:03:11.703Z,12.69
2023-04-21T19:05:40.678Z,12.66
2023-04-21T19:08:10.311Z,12.63
2023-04-21T19:10:38.948Z,12.58
2023-04-21T19:13:06.963Z,12.54
2023-04-21T19:15:35.126Z,12.43
2023-04-21T19:18:04.675Z,12.42
2023-04-21T19:20:32.943Z,12.42
2023-04-21T19:23:03.563Z,12.39
2023-04-21T19:25:31.944Z,12.31
2023-04-21T19:28:01.230Z,12.20
2023-04-21T19:30:29.293Z,12.21
2023-04-21T19:32:57.287Z,12.21
2023-04-21T19:35:26.851Z,12.19
2023-04-21T19:37:54.806Z,12.12
2023-04-21T19:40:22.821Z,11.97
2023-04-21T19:42:50.864Z,11.79
2023-04-21T19:45:18.817Z,11.85
2023-04-21T19:47:47.700Z,11.87
2023-04-21T19:50:16.021Z,11.86
2023-04-21T19:52:46.573Z,11.86
2023-04-21T19:55:14.807Z,11.81
2023-04-21T19:57:42.765Z,11.79
2023-04-21T20:00:12.576Z,11.79
2023-04-21T20:02:40.672Z,11.72
2023-04-21T20:05:10.077Z,11.74
2023-04-21T20:07:38.570Z,11.70
2023-04-21T20:10:09.335Z,11.69
2023-04-21T20:12:37.367Z,11.70
2023-04-21T20:15:06.210Z,11.65
2023-04-21T20:17:34.314Z,11.63
2023-04-21T20:20:05.237Z,11.61
2023-04-21T20:22:33.231Z,11.57
2023-04-21T20:25:01.145Z,11.53
2023-04-21T20:27:30.764Z,11.54
2023-04-21T20:29:58.870Z,11.54
2023-04-21T20:32:27.146Z,11.55
2023-04-21T20:34:55.205Z,11.54
2023-04-21T20:37:23.422Z,11.56
2023-04-21T20:39:51.385Z,11.43
2023-04-21T20:42:20.137Z,11.31
2023-04-21T20:44:49.464Z,11.35
2023-04-21T20:47:17.582Z,11.37
2023-04-21T20:49:47.383Z,11.36
2023-04-21T20:52:16.170Z,11.36
2023-04-21T20:54:44.325Z,11.40
2023-04-21T20:57:12.654Z,11.40
2023-04-21T20:59:41.010Z,11.37
2023-04-21T21:02:10.869Z,11.31
2023-04-21T21:04:38.956Z,11.26
2023-04-21T21:07:07.063Z,11.19
2023-04-21T21:09:35.193Z,11.20
2023-04-21T21:12:03.640Z,11.22
2023-04-21T21:14:31.630Z,11.25
2023-04-21T21:16:59.850Z,11.15
2023-04-21T21:19:29.279Z,11.14
2023-04-21T21:21:57.460Z,11.15
2023-04-21T21:24:26.458Z,11.14
2023-04-21T21:26:54.489Z,11.16
2023-04-21T21:29:22.426Z,11.23
2023-04-21T21:31:50.402Z,11.21
2023-04-21T21:34:18.456Z,11.19
2023-04-21T21:36:47.720Z,11.18
2023-04-21T21:39:15.808Z,11.18
2023-04-21T21:41:43.719Z,11.14
2023-04-21T21:44:11.662Z,11.02
2023-04-21T21:46:39.892Z,11.00
2023-04-21T21:49:08.462Z,10.98
2023-04-21T21:51:36.421Z,10.94
2023-04-21T21:54:06.598Z,10.92
2023-04-21T21:56:34.689Z,10.81
2023-04-21T21:59:02.609Z,10.83
2023-04-21T22:01:30.599Z,10.79
2023-04-21T22:03:58.670Z,10.76
2023-04-21T22:06:28.995Z,10.77
2023-04-21T22:08:57.022Z,10.82
2023-04-21T22:11:26.398Z,10.85
2023-04-21T22:13:54.519Z,10.88
2023-04-21T22:16:22.444Z,10.86
2023-04-21T22:18:50.906Z,10.86
2023-04-21T22:21:20.522Z,10.91
2023-04-21T22:23:48.543Z,10.85
2023-04-21T22:26:16.492Z,10.83
2023-04-21T22:28:49.848Z,10.84
2023-04-21T22:31:18.192Z,10.81
2023-04-21T22:33:46.197Z,10.79
2023-04-21T22:36:14.177Z,10.75
2023-04-21T22:38:43.615Z,10.71
2023-04-21T22:41:11.590Z,10.52
2023-04-21T22:43:39.797Z,10.46
2023-04-21T22:46:09.274Z,10.59
2023-04-21T22:48:38.351Z,10.64
2023-04-21T22:51:07.260Z,10.64
2023-04-21T22:53:35.593Z,10.67
2023-04-21T22:56:04.475Z,10.71
2023-04-21T22:58:32.441Z,10.71
2023-04-21T23:01:00.723Z,10.72
2023-04-21T23:03:31.276Z,10.74
2023-04-21T23:05:59.452Z,10.70
2023-04-21T23:08:27.419Z,10.67
2023-04-21T23:10:55.590Z,10.67
2023-04-21T23:13:23.663Z,10.64
2023-04-21T23:15:51.632Z,10.63
2023-04-21T23:18:19.538Z,10.63
2023-04-21T23:20:48.904Z,10.61
2023-04-21T23:23:16.801Z,10.57
2023-04-21T23:25:44.724Z,10.53
2023-04-21T23:28:12.723Z,10.48
2023-04-21T23:30:40.870Z,10.41
2023-04-21T23:33:09.092Z,10.15
2023-04-21T23:35:37.092Z,9.98
2023-04-21T23:38:06.381Z,9.91
2023-04-21T23:40:34.335Z,9.91
2023-04-21T23:43:02.294Z,9.98
2023-04-21T23:45:30.228Z,10.14
2023-04-21T23:47:58.196Z,10.19
2023-04-21T23:50:26.195Z,10.30
2023-04-21T23:52:54.136Z,10.38
2023-04-21T23:55:23.460Z,10.45
2023-04-21T23:57:51.409Z,10.42
